EGGP Airport Information

Runway Information
Runway 09 Length 7497 ft width 150 ft
Elevation 59 ft Threshold 200 ft Heading 86
Runway 27 Length 7497 ft Width 150 ft
Elevation 77 ft Threshold ft Heading 266
Airport Frequencies
Type APP Name APP Frequency 119.85 MHZ
Type ATIS Name ATIS Frequency 124.325 MHZ
Type GND Name GND Frequency 121.95 MHZ
Type TWR Name TWR Frequency 126.35 MHZ
Airport Navaids
Airport Weather Information & NOTAM
ADDS - METARS form results

(1413 UTC 11 August 2022)
Data provider http://aviationweather.gov/metar/data/
 
METAR text: EGGP 111350Z 19004KT CAVOK 30/11 Q1021
Conditions at: EGGP (LIVERPOOL AIRPOR, GB) observed 1350 UTC 11 August 2022
Temperature: 30.0°C (86°F)
Dewpoint: 11.0°C (52°F) [RH = 31%]
Pressure (altimeter): 30.15 inches Hg (1021.0 mb)
Winds: from the S (190 degrees) at 5 MPH (4 knots; 2.1 m/s)
Visibility: 6 or more miles (10+ km)
Ceiling: ceiling and visibility are OK
Clouds: unknown
Weather: no significant weather observed at this time

METAR text: EGGP 111320Z 19004KT CAVOK 29/10 Q1022
Conditions at: EGGP (LIVERPOOL AIRPOR, GB) observed 1320 UTC 11 August 2022
Temperature: 29.0°C (84°F)
Dewpoint: 10.0°C (50°F) [RH = 31%]
Pressure (altimeter): 30.18 inches Hg (1022.0 mb)
Winds: from the S (190 degrees) at 5 MPH (4 knots; 2.1 m/s)
Visibility: 6 or more miles (10+ km)
Ceiling: ceiling and visibility are OK
Clouds: unknown
Weather: no significant weather observed at this time

Forecast for: EGGP (LIVERPOOL AIRPOR, GB)
Text: TAF EGGP 111053Z 1112/1212 VRB02KT CAVOK
Forecast period: 1200 UTC 11 August 2022 to 1200 UTC 12 August 2022
Forecast type: FROM: standard forecast or significant change
Winds: variable direction winds at 2 MPH (2 knots; 1.0 m/s)
Visibility: 6 or more miles (10+ km)
Ceiling: unknown
Clouds: missing
Weather: NSW  (no significant weather)
Text: BECMG 1112/1115 33010KT
Forecast period: 1200 to 2100 UTC 11 August 2022
Forecast type: BECOMING: Conditions expected to become as follows by 1500 UTC 11 August 2022
Winds: from the NNW (330 degrees) at 12 MPH (10 knots; 5.1 m/s)
Visibility: 6 or more miles (10+ km)
Ceiling: unknown
Clouds: missing
Weather: NSW  (no significant weather)
Text: BECMG 1121/1124 27003KT
Forecast period: 2100 UTC 11 August 2022 to 1200 UTC 12 August 2022
Forecast type: BECOMING: Conditions expected to become as follows by 0000 UTC 12 August 2022
Winds: from the W (270 degrees) at 3 MPH (3 knots; 1.5 m/s)
Visibility: 6 or more miles (10+ km)
Ceiling: unknown
Clouds: missing
Weather: NSW  (no significant weather)
Text: PROB30 1200/1206 8000
Forecast period: 0000 to 0600 UTC 12 August 2022
Forecast type: PROBABLE: 30 percent likelihood of the following during this time
Visibility: 5 miles (8 km)
Ceiling: unknown
Clouds: missing
Weather: no significant weather forecast for this period